Time;durP1;ratioP1;P1;durP2;ratioP2;P2;SDS_P1;SDS_P2;PMS_P1;PMS_P2;Temp;Humidity;BMP_temperature;BMP_pressure;BME280_temperature;BME280_humidity;BME280_pressure;Samples;Min_cycle;Max_cycle;Signal;HPM_P1;HPM_P2
2022/01/16 00:04:09;;;;;;;2.03;1.35;;;;;;;18.63;32.91;102798.28;4181608;28;20420;-42
2022/01/16 00:06:13;;;;;;;1.67;1.23;;;;;;;18.62;33.06;102807.69;4214864;28;20051;-42
2022/01/16 00:08:14;;;;;;;2.42;1.60;;;;;;;18.60;33.27;102809.84;4214775;28;20040;-42
2022/01/16 00:10:19;;;;;;;2.42;1.08;;;;;;;18.61;33.21;102816.25;4214558;28;20433;-43
2022/01/16 00:12:23;;;;;;;2.83;1.50;;;;;;;18.59;33.08;102824.75;4214970;28;20040;-42
2022/01/16 00:14:25;;;;;;;1.48;1.13;;;;;;;18.57;33.09;102821.38;4214621;28;20459;-42
2022/01/16 00:16:26;;;;;;;2.22;1.15;;;;;;;18.55;33.24;102820.72;4214810;28;20048;-42
2022/01/16 00:18:41;;;;;;;2.88;1.50;;;;;;;18.55;32.96;102817.94;4213850;28;20097;-44
2022/01/16 00:20:43;;;;;;;1.83;1.27;;;;;;;18.54;33.20;102819.03;4214649;28;20101;-42
2022/01/16 00:22:46;;;;;;;2.03;1.35;;;;;;;18.53;33.15;102825.66;4214631;28;20544;-41
2022/01/16 00:24:47;;;;;;;1.50;1.33;;;;;;;18.51;33.29;102839.72;4215197;28;20020;-43
2022/01/16 00:26:49;;;;;;;1.17;1.02;;;;;;;18.50;33.47;102835.22;4214610;28;20036;-43
2022/01/16 00:28:51;;;;;;;1.90;1.35;;;;;;;18.50;33.45;102831.63;4214329;28;20048;-44
2022/01/16 00:30:53;;;;;;;2.72;1.10;;;;;;;18.48;33.01;102822.69;4214765;28;20077;-43
2022/01/16 00:32:59;;;;;;;1.50;1.15;;;;;;;18.49;33.19;102833.53;4214565;28;20417;-42
2022/01/16 00:35:00;;;;;;;2.40;1.38;;;;;;;18.46;33.42;102827.56;4214518;28;20085;-42
2022/01/16 00:37:02;;;;;;;1.35;1.15;;;;;;;18.40;33.28;102809.06;4214862;28;20576;-42
2022/01/16 00:39:05;;;;;;;1.42;1.15;;;;;;;18.47;33.16;102821.00;4214188;28;20112;-44
2022/01/16 00:41:07;;;;;;;1.83;1.10;;;;;;;18.45;33.34;102817.56;4214463;28;20036;-44
2022/01/16 00:43:09;;;;;;;1.80;1.05;;;;;;;18.44;33.19;102821.41;4214288;28;20040;-43
2022/01/16 00:45:10;;;;;;;1.65;1.10;;;;;;;18.45;32.87;102823.09;4214058;28;20121;-42
2022/01/16 00:47:14;;;;;;;1.63;1.35;;;;;;;18.43;32.86;102814.16;4213881;28;20032;-41
2022/01/16 00:49:16;;;;;;;1.85;1.33;;;;;;;18.45;33.13;102817.56;4196147;28;20074;-42
2022/01/16 00:51:17;;;;;;;1.65;1.00;;;;;;;18.38;33.43;102805.66;4214997;28;20032;-44
2022/01/16 00:53:19;;;;;;;1.40;1.20;;;;;;;18.42;32.77;102805.00;4214476;28;20036;-46
2022/01/16 00:55:23;;;;;;;1.95;1.42;;;;;;;18.41;32.84;102806.06;4213948;28;20036;-44
2022/01/16 00:57:24;;;;;;;2.47;1.40;;;;;;;18.41;32.96;102810.75;4214515;28;20097;-44
2022/01/16 00:59:26;;;;;;;2.28;1.60;;;;;;;18.41;32.78;102810.75;4213779;28;20441;-43
2022/01/16 01:01:27;;;;;;;2.13;1.30;;;;;;;18.40;32.70;102811.81;4214301;28;20040;-43
2022/01/16 01:03:30;;;;;;;2.65;1.30;;;;;;;18.40;32.79;102809.06;4214104;28;20036;-44
2022/01/16 01:05:32;;;;;;;1.40;1.02;;;;;;;18.39;33.20;102810.13;4214141;28;20108;-44
2022/01/16 01:07:33;;;;;;;1.88;1.30;;;;;;;18.40;32.93;102809.06;4214124;28;20039;-43
2022/01/16 01:09:36;;;;;;;2.55;1.20;;;;;;;18.37;32.72;102807.59;4196033;28;20036;-42
2022/01/16 01:11:39;;;;;;;2.28;1.40;;;;;;;18.37;32.84;102809.47;4213894;28;20048;-44
2022/01/16 01:14:08;;;;;;;1.98;1.40;;;;;;;18.36;32.81;102807.78;4214600;28;20077;-42
2022/01/16 01:16:15;;;;;;;2.17;1.00;;;;;;;18.35;33.03;102806.94;4213974;28;20040;-45
2022/01/16 01:18:19;;;;;;;1.38;1.00;;;;;;;18.35;32.95;102806.09;4213925;28;20545;-43
2022/01/16 01:20:23;;;;;;;1.92;1.38;;;;;;;18.35;32.56;102803.31;4214222;28;20040;-43
2022/01/16 01:22:24;;;;;;;3.42;1.52;;;;;;;18.34;32.59;102805.25;4193156;28;20472;-44
2022/01/16 01:24:27;;;;;;;1.90;1.42;;;;;;;18.34;32.54;102815.47;4214274;28;20028;-42
2022/01/16 01:26:35;;;;;;;1.90;1.27;;;;;;;18.33;32.66;102822.09;4213764;28;20540;-43
2022/01/16 01:28:36;;;;;;;1.45;1.25;;;;;;;18.33;32.94;102822.09;4213383;28;20108;-43
2022/01/16 01:30:44;;;;;;;1.20;1.10;;;;;;;18.34;32.54;102826.56;4213710;28;20040;-45
2022/01/16 01:32:47;;;;;;;1.38;1.13;;;;;;;18.31;32.57;102827.00;4213816;28;20433;-44
2022/01/16 01:34:49;;;;;;;1.98;1.05;;;;;;;18.27;32.67;102824.66;4214004;28;20047;-42
2022/01/16 01:36:51;;;;;;;1.10;1.00;;;;;;;18.29;32.70;102818.91;4213194;28;20101;-43
2022/01/16 01:38:52;;;;;;;2.17;1.30;;;;;;;18.28;32.65;102820.00;4213528;28;20483;-44
2022/01/16 01:40:57;;;;;;;1.15;1.00;;;;;;;18.26;32.42;102825.72;4213766;28;20036;-41
2022/01/16 01:52:54;;;;;;;2.00;1.40;;;;;;;18.24;32.66;102832.56;4214932;28;20089;-43
2022/01/16 01:54:58;;;;;;;1.83;1.30;;;;;;;18.23;32.46;102826.16;4213814;28;20032;-44
2022/01/16 01:57:00;;;;;;;2.73;1.60;;;;;;;18.23;32.66;102839.16;4213893;28;20425;-43
2022/01/16 01:59:03;;;;;;;1.67;1.25;;;;;;;18.23;32.30;102836.38;4213435;28;20330;-43
2022/01/16 02:01:06;;;;;;;2.58;1.40;;;;;;;18.22;32.48;102840.22;4213569;28;20040;-43
2022/01/16 02:03:21;;;;;;;1.95;1.35;;;;;;;18.21;32.44;102831.06;4195509;28;20224;-42
2022/01/16 02:05:23;;;;;;;1.45;1.15;;;;;;;18.17;32.10;102832.56;4213604;28;20043;-43
2022/01/16 02:07:25;;;;;;;2.17;1.42;;;;;;;18.19;32.40;102833.22;4213683;28;20082;-41
2022/01/16 02:09:27;;;;;;;1.63;1.20;;;;;;;18.17;32.18;102832.56;4213473;28;20433;-44
2022/01/16 02:11:31;;;;;;;1.98;1.23;;;;;;;18.17;32.36;102838.13;4213668;28;20532;-43
2022/01/16 02:13:45;;;;;;;2.70;1.38;;;;;;;18.18;32.12;102850.03;4213373;28;20032;-41
2022/01/16 02:31:43;;;;;;;1.13;0.82;;;;;;;18.07;32.24;102839.63;4218288;28;20042;-42
2022/01/16 02:36:28;;;;;;;1.90;1.30;;;;;;;18.02;32.00;102849.44;4232928;28;20097;-42
2022/01/16 02:38:29;;;;;;;1.83;1.15;;;;;;;18.02;32.15;102851.38;4232764;28;20544;-42
2022/01/16 02:40:31;;;;;;;3.47;1.60;;;;;;;18.01;32.37;102852.44;4233044;28;20040;-43
2022/01/16 02:42:38;;;;;;;1.83;1.60;;;;;;;18.04;32.49;102851.97;4233949;28;20466;-43
2022/01/16 02:44:47;;;;;;;2.33;1.23;;;;;;;18.06;32.27;102855.41;4232982;28;20035;-42
2022/01/16 02:46:49;;;;;;;2.00;1.60;;;;;;;18.06;32.07;102858.19;4233772;28;20044;-42
2022/01/16 02:48:54;;;;;;;3.00;1.38;;;;;;;18.04;31.90;102854.75;4232810;28;20036;-41
2022/01/16 02:50:55;;;;;;;3.90;1.25;;;;;;;18.13;31.48;102870.09;4231783;28;20036;-43
2022/01/16 02:52:59;;;;;;;2.50;1.52;;;;;;;18.16;31.71;102869.66;4232861;28;20032;-42
2022/01/16 02:55:01;;;;;;;2.27;1.70;;;;;;;18.19;31.64;102872.00;4231459;28;20043;-43
2022/01/16 02:57:08;;;;;;;1.75;1.10;;;;;;;18.21;31.16;102875.41;4213353;28;20093;-42
2022/01/16 02:59:11;;;;;;;1.42;1.27;;;;;;;18.22;31.47;102874.34;4232348;28;20073;-43
2022/01/16 03:01:16;;;;;;;1.70;1.33;;;;;;;18.24;30.79;102875.00;4232171;28;20035;-41
2022/01/16 03:03:17;;;;;;;2.10;1.42;;;;;;;18.33;30.75;102877.53;4231398;28;20039;-41
2022/01/16 03:05:19;;;;;;;2.50;1.42;;;;;;;18.35;30.64;102879.00;4232395;28;20031;-42
2022/01/16 03:07:22;;;;;;;2.38;1.70;;;;;;;18.39;30.43;102879.44;4232176;28;20104;-42
2022/01/16 03:09:24;;;;;;;2.13;1.60;;;;;;;18.42;30.81;102876.22;4231759;28;20084;-42
2022/01/16 03:11:35;;;;;;;2.33;1.40;;;;;;;18.38;30.54;102867.50;4231949;28;20376;-45
2022/01/16 03:13:40;;;;;;;1.55;1.30;;;;;;;18.46;30.54;102881.13;4232029;28;20089;-43
2022/01/16 03:15:43;;;;;;;2.53;1.52;;;;;;;18.46;30.26;102881.13;4232943;28;20019;-43
2022/01/16 03:22:19;;;;;;;3.15;1.60;;;;;;;18.51;30.44;102884.09;4233096;28;20528;-44
2022/01/16 03:24:22;;;;;;;2.60;1.65;;;;;;;18.50;30.15;102887.91;4232131;28;20483;-42
2022/01/16 03:26:23;;;;;;;3.08;2.03;;;;;;;18.52;30.61;102887.72;4232149;28;20048;-42
2022/01/16 03:28:25;;;;;;;1.95;1.48;;;;;;;18.51;30.29;102888.78;4231622;28;20100;-43
2022/01/16 03:30:26;;;;;;;1.83;1.27;;;;;;;18.49;30.29;102890.91;4230730;28;20393;-43
2022/01/16 03:32:28;;;;;;;1.67;1.35;;;;;;;18.48;30.62;102889.22;4232163;28;20105;-43
2022/01/16 03:34:29;;;;;;;1.98;1.38;;;;;;;18.51;30.63;102894.34;4232210;28;20035;-43
2022/01/16 03:36:31;;;;;;;2.22;1.48;;;;;;;18.49;30.58;102896.47;4231595;28;20039;-43
2022/01/16 03:38:32;;;;;;;2.28;1.55;;;;;;;18.47;30.61;102893.06;4232298;28;20540;-43
2022/01/16 03:40:34;;;;;;;2.10;1.80;;;;;;;18.48;30.68;102900.31;4232226;28;20439;-43
2022/01/16 03:42:37;;;;;;;1.80;1.40;;;;;;;18.47;30.46;102906.94;4231708;28;20043;-42
2022/01/16 03:44:38;;;;;;;1.92;1.42;;;;;;;18.47;30.40;102909.69;4231492;28;20100;-42
2022/01/16 03:46:42;;;;;;;2.45;1.50;;;;;;;18.44;30.68;102894.34;4231722;28;20040;-43
2022/01/16 03:48:44;;;;;;;3.47;1.50;;;;;;;18.47;30.38;102893.06;4232429;28;20375;-42
2022/01/16 03:50:45;;;;;;;1.83;1.50;;;;;;;18.47;30.85;102898.59;4231785;28;20100;-42
2022/01/16 03:52:47;;;;;;;2.42;1.55;;;;;;;18.45;30.72;102907.13;4231627;28;20060;-43
2022/01/16 03:54:48;;;;;;;1.70;1.30;;;;;;;18.44;30.82;102899.03;4231346;28;20032;-43
2022/01/16 03:56:50;;;;;;;2.33;1.50;;;;;;;18.43;30.59;102897.34;4231412;28;20085;-43
2022/01/16 03:58:55;;;;;;;2.10;1.55;;;;;;;18.37;30.64;102893.50;4231162;28;20391;-42
2022/01/16 04:00:56;;;;;;;2.58;1.67;;;;;;;18.44;30.50;102908.19;4232001;28;20112;-44
2022/01/16 04:02:58;;;;;;;3.55;1.90;;;;;;;18.39;30.70;102907.16;4231248;28;20092;-44
2022/01/16 04:04:59;;;;;;;1.55;1.42;;;;;;;18.43;30.80;102914.81;4231373;28;20043;-43
2022/01/16 04:07:01;;;;;;;3.05;2.00;;;;;;;18.42;30.68;102906.72;4230986;28;20047;-43
2022/01/16 04:09:04;;;;;;;2.40;1.58;;;;;;;18.39;30.57;102908.00;4230802;28;20474;-45
2022/01/16 04:11:05;;;;;;;2.75;1.60;;;;;;;18.39;30.88;102908.00;4231391;28;20089;-43
2022/01/16 04:13:08;;;;;;;2.40;1.63;;;;;;;18.38;30.98;102911.00;4231478;28;20031;-44
2022/01/16 04:17:19;;;;;;;2.88;1.80;;;;;;;18.39;30.60;102901.59;4232225;28;20027;-45
2022/01/16 04:19:23;;;;;;;3.88;1.63;;;;;;;18.38;30.84;102911.00;4230692;28;20039;-45
2022/01/16 04:21:28;;;;;;;1.88;1.45;;;;;;;18.36;30.85;102908.41;4231256;28;20039;-43
2022/01/16 04:23:29;;;;;;;;;;;;;;;18.34;30.65;102918.03;4232006;28;20064;-44
2022/01/16 04:25:31;;;;;;;2.10;1.50;;;;;;;18.39;30.67;102898.84;4231820;28;19915;-44
2022/01/16 04:27:32;;;;;;;1.88;1.55;;;;;;;18.38;30.79;102899.91;4231995;28;20036;-42
2022/01/16 04:29:34;;;;;;;2.97;1.60;;;;;;;18.34;31.06;102893.94;4230291;28;20073;-42
2022/01/16 04:31:35;;;;;;;2.05;1.42;;;;;;;18.28;30.86;102879.03;4232010;28;20096;-44
2022/01/16 04:33:39;;;;;;;1.92;1.70;;;;;;;18.32;30.84;102884.13;4230821;28;20096;-44
2022/01/16 04:35:40;;;;;;;2.00;1.45;;;;;;;18.29;30.75;102879.88;4231059;28;20100;-43
2022/01/16 04:37:45;;;;;;;2.35;1.52;;;;;;;18.27;31.10;102882.00;4230248;28;20088;-42
2022/01/16 04:39:52;;;;;;;2.13;1.70;;;;;;;18.25;31.14;102884.16;4230845;28;20043;-44
2022/01/16 04:44:13;;;;;;;2.67;1.70;;;;;;;18.23;31.20;102876.03;4232163;28;20088;-46
2022/01/16 04:46:20;;;;;;;2.20;1.65;;;;;;;18.22;30.98;102867.94;4231215;28;20044;-43
2022/01/16 04:48:21;;;;;;;2.88;1.70;;;;;;;18.21;31.22;102875.41;4214904;28;20108;-41
2022/01/16 04:50:25;;;;;;;3.67;1.50;;;;;;;18.15;30.94;102867.97;4212411;28;20085;-41
2022/01/16 04:52:26;;;;;;;1.83;1.55;;;;;;;18.18;31.08;102895.22;4223367;28;20529;-41
2022/01/16 04:54:32;;;;;;;2.00;1.52;;;;;;;18.17;31.25;102904.63;4238038;27;20096;-42
2022/01/16 04:56:33;;;;;;;1.92;1.63;;;;;;;18.15;31.34;102917.00;4231366;27;20081;-42
2022/01/16 04:58:35;;;;;;;2.20;1.60;;;;;;;18.14;31.03;102929.97;4240670;27;20061;-43
2022/01/16 05:00:40;;;;;;;2.58;1.40;;;;;;;18.14;31.13;102949.38;4247895;27;20047;-42
2022/01/16 05:02:42;;;;;;;3.38;2.03;;;;;;;18.13;31.26;102980.91;4236238;27;20109;-43
2022/01/16 05:04:44;;;;;;;3.17;1.83;;;;;;;18.12;31.09;103012.47;4227633;28;20126;-43
2022/01/16 05:06:47;;;;;;;2.20;1.50;;;;;;;18.07;30.89;102994.78;4220925;28;20437;-43
2022/01/16 05:08:51;;;;;;;3.58;1.58;;;;;;;18.16;31.09;102919.53;4220006;27;20505;-41
2022/01/16 05:10:54;;;;;;;2.45;1.73;;;;;;;18.07;30.93;102800.84;4247241;27;20371;-42
2022/01/16 05:13:04;;;;;;;2.80;1.60;;;;;;;18.10;31.04;102754.19;4244364;27;20143;-43
2022/01/16 05:17:26;;;;;;;4.95;1.90;;;;;;;18.10;31.28;102745.88;4231534;28;20527;-42
2022/01/16 05:19:28;;;;;;;4.03;1.80;;;;;;;18.08;30.99;102763.75;4226214;28;20048;-44
2022/01/16 05:21:29;;;;;;;7.32;1.90;;;;;;;18.07;31.15;102789.75;4234013;27;20019;-43
2022/01/16 05:23:31;;;;;;;3.22;1.60;;;;;;;18.07;31.00;102807.25;4248232;27;20147;-42
2022/01/16 05:25:32;;;;;;;3.03;1.80;;;;;;;18.06;31.36;102788.91;4242405;27;20032;-42
2022/01/16 05:27:35;;;;;;;2.97;1.67;;;;;;;17.99;31.24;102743.75;4230688;28;20043;-43
2022/01/16 05:29:36;;;;;;;2.92;1.60;;;;;;;18.00;31.00;102737.13;4230219;28;20040;-43
2022/01/16 05:31:44;;;;;;;5.50;1.70;;;;;;;18.03;31.34;102781.88;4229122;28;20089;-44
2022/01/16 05:33:46;;;;;;;2.58;1.60;;;;;;;18.01;30.95;102819.19;4230722;28;20043;-41
2022/01/16 05:35:50;;;;;;;3.70;1.85;;;;;;;18.01;31.17;102830.28;4230252;28;20084;-42
2022/01/16 05:37:51;;;;;;;4.85;2.20;;;;;;;18.01;31.29;102846.91;4242751;27;20039;-44
2022/01/16 05:39:52;;;;;;;3.30;1.88;;;;;;;18.00;31.01;102853.47;4247260;27;20582;-41
2022/01/16 05:41:54;;;;;;;3.38;1.73;;;;;;;17.91;31.11;102852.00;4247113;27;20431;-43
2022/01/16 05:43:55;;;;;;;5.07;1.90;;;;;;;17.99;30.97;102885.03;4247133;27;20039;-43
2022/01/16 05:45:57;;;;;;;3.33;1.80;;;;;;;17.97;30.90;102889.94;4247522;27;20096;-42
2022/01/16 05:47:59;;;;;;;2.88;2.10;;;;;;;17.90;31.17;102853.06;4246189;27;20432;-44
2022/01/16 05:50:00;;;;;;;2.97;1.80;;;;;;;17.96;31.35;102874.34;4247575;27;20462;-44
2022/01/16 05:52:02;;;;;;;3.17;1.95;;;;;;;17.93;30.84;102881.19;4247079;27;20406;-43
2022/01/16 05:54:07;;;;;;;3.05;1.67;;;;;;;17.93;30.88;102824.94;4247134;27;20060;-42
2022/01/16 05:56:08;;;;;;;3.58;1.90;;;;;;;17.93;31.12;102813.88;4247307;27;20039;-43
2022/01/16 05:58:12;;;;;;;3.00;2.08;;;;;;;17.92;31.03;102820.50;4247257;27;20107;-43
2022/01/16 06:00:15;;;;;;;1.85;1.33;;;;;;;17.91;31.01;102821.53;4246886;27;20047;-45
2022/01/16 06:02:16;;;;;;;2.65;1.75;;;;;;;17.92;31.31;102862.03;4247312;28;20035;-43
2022/01/16 06:04:18;;;;;;;2.38;1.80;;;;;;;17.90;31.13;102880.78;4247307;28;20100;-44
2022/01/16 06:06:19;;;;;;;2.35;1.75;;;;;;;17.90;30.79;102853.06;4247336;28;20035;-42
2022/01/16 06:08:21;;;;;;;3.70;1.83;;;;;;;17.89;31.05;102868.00;4246968;28;20050;-43
2022/01/16 06:10:22;;;;;;;3.22;2.03;;;;;;;17.88;30.97;102861.59;4247796;28;20092;-44
2022/01/16 06:12:24;;;;;;;2.72;1.70;;;;;;;17.88;30.79;102847.75;4247401;28;20035;-44
2022/01/16 06:14:25;;;;;;;3.47;1.98;;;;;;;17.87;31.03;102864.56;4230883;28;20093;-46
2022/01/16 06:16:27;;;;;;;2.47;1.80;;;;;;;17.86;30.82;102873.94;4229779;28;20039;-42
2022/01/16 06:18:28;;;;;;;2.10;1.67;;;;;;;17.86;30.69;102898.88;4229855;28;20036;-43
2022/01/16 06:20:29;;;;;;;4.35;2.03;;;;;;;17.84;30.89;102910.19;4230120;28;20537;-43
2022/01/16 06:22:31;;;;;;;3.30;2.03;;;;;;;17.83;30.79;102904.84;4230167;28;20035;-43
2022/01/16 06:24:33;;;;;;;2.78;1.88;;;;;;;17.77;30.98;102898.22;4229627;28;20048;-42
2022/01/16 06:26:34;;;;;;;2.05;1.77;;;;;;;17.82;30.98;102897.59;4230537;28;20096;-43
2022/01/16 06:28:35;;;;;;;3.38;1.85;;;;;;;17.80;31.05;102910.81;4230075;28;20056;-44
2022/01/16 06:30:37;;;;;;;2.53;1.80;;;;;;;17.78;30.96;102900.81;4230673;28;20023;-43
2022/01/16 06:32:39;;;;;;;2.75;2.20;;;;;;;17.69;31.15;102879.91;4229929;28;20066;-41
2022/01/16 06:34:40;;;;;;;2.50;2.00;;;;;;;17.72;31.18;102890.53;4229609;28;20031;-42
2022/01/16 06:36:42;;;;;;;2.58;1.80;;;;;;;17.66;31.16;102888.63;4230718;28;20081;-44
2022/01/16 06:38:46;;;;;;;2.35;1.80;;;;;;;17.64;31.09;102892.66;4229305;28;20123;-41
2022/01/16 06:40:48;;;;;;;2.42;1.85;;;;;;;17.67;30.84;102914.38;4229740;28;20032;-43
2022/01/16 06:42:49;;;;;;;3.45;1.90;;;;;;;17.67;30.92;102920.78;4230001;28;20035;-42
2022/01/16 06:44:51;;;;;;;3.08;2.10;;;;;;;17.69;30.98;102928.88;4229534;28;20040;-43
2022/01/16 06:46:52;;;;;;;3.75;2.15;;;;;;;17.71;30.62;102932.28;4230338;28;20101;-43
2022/01/16 06:48:57;;;;;;;3.33;1.95;;;;;;;17.71;30.91;102919.28;4229668;28;20040;-43
2022/01/16 06:50:58;;;;;;;4.45;2.45;;;;;;;17.74;30.57;102905.06;4229405;28;20048;-42
2022/01/16 06:53:00;;;;;;;5.03;2.05;;;;;;;17.76;30.30;102913.16;4228569;28;20032;-42
2022/01/16 06:55:01;;;;;;;2.47;1.90;;;;;;;17.77;30.02;102893.53;4227836;28;20036;-42
2022/01/16 06:57:03;;;;;;;5.20;2.50;;;;;;;17.77;30.21;102904.63;4222338;28;20112;-47
2022/01/16 06:59:10;;;;;;;3.10;2.20;;;;;;;17.82;29.86;102923.38;4231890;28;20492;-47
2022/01/16 07:01:13;;;;;;;2.38;1.92;;;;;;;17.86;29.96;102929.34;4220618;28;20047;-43
2022/01/16 07:03:15;;;;;;;4.20;1.98;;;;;;;17.87;29.95;102920.84;4243783;28;20080;-42
2022/01/16 07:05:17;;;;;;;3.05;2.03;;;;;;;17.90;29.88;102925.94;4247641;27;20035;-43
2022/01/16 07:07:19;;;;;;;4.50;2.33;;;;;;;17.93;29.83;102919.13;4239919;27;20039;-42
2022/01/16 07:09:20;;;;;;;3.83;2.20;;;;;;;17.94;29.97;102899.50;4248810;27;20031;-41
2022/01/16 07:11:22;;;;;;;2.97;2.30;;;;;;;17.97;30.02;102893.56;4245488;27;20035;-43
2022/01/16 07:13:24;;;;;;;4.22;2.38;;;;;;;18.00;29.53;102900.56;4233811;27;20404;-42
2022/01/16 07:15:25;;;;;;;3.42;2.22;;;;;;;18.02;29.46;102928.94;4230679;28;20083;-41
2022/01/16 07:17:27;;;;;;;3.03;2.05;;;;;;;18.03;29.75;102925.09;4222864;27;20036;-44
2022/01/16 07:19:28;;;;;;;3.65;1.90;;;;;;;18.04;29.48;102901.84;4248966;27;20039;-42
2022/01/16 07:21:30;;;;;;;2.63;1.80;;;;;;;18.06;29.75;102918.28;4248092;27;20396;-43
2022/01/16 07:23:31;;;;;;;3.05;2.00;;;;;;;18.05;29.64;102931.25;4232460;28;20044;-42
2022/01/16 07:25:32;;;;;;;3.67;2.40;;;;;;;18.08;29.69;102913.38;4232769;28;20156;-43
2022/01/16 07:27:34;;;;;;;2.40;1.95;;;;;;;18.01;29.27;102905.06;4214643;28;20044;-43
2022/01/16 07:29:41;;;;;;;2.67;1.95;;;;;;;18.09;29.46;102924.22;4232520;28;20039;-41
2022/01/16 07:31:42;;;;;;;4.38;2.40;;;;;;;18.09;29.49;102910.38;4232125;28;20100;-42
2022/01/16 07:33:44;;;;;;;2.83;1.83;;;;;;;18.09;29.14;102913.13;4231942;28;20048;-49
2022/01/16 07:35:45;;;;;;;3.28;2.15;;;;;;;18.08;29.26;102919.75;4223986;28;20035;-44
2022/01/16 07:37:47;;;;;;;6.55;2.17;;;;;;;18.10;29.34;102903.78;4216198;28;20048;-51
2022/01/16 07:39:48;;;;;;;2.72;2.15;;;;;;;18.11;29.09;102905.47;4215613;28;20097;-42
2022/01/16 07:41:50;;;;;;;3.13;2.10;;;;;;;18.09;29.29;102902.06;4222682;27;20036;-43
2022/01/16 07:43:51;;;;;;;3.40;2.15;;;;;;;18.10;29.27;102908.44;4248916;27;20088;-42
2022/01/16 07:45:53;;;;;;;3.65;2.38;;;;;;;18.10;29.37;102914.88;4245326;27;20043;-40
2022/01/16 07:47:54;;;;;;;2.88;2.13;;;;;;;18.06;29.31;102896.97;4229994;28;20524;-43
2022/01/16 07:49:56;;;;;;;2.88;2.05;;;;;;;18.09;29.14;102899.28;4231094;28;20035;-43
2022/01/16 07:51:57;;;;;;;5.38;2.90;;;;;;;18.05;29.26;102906.31;4228940;28;20555;-43
2022/01/16 07:53:59;;;;;;;3.33;2.10;;;;;;;18.06;29.35;102916.34;4231587;28;20040;-42
2022/01/16 07:56:01;;;;;;;3.85;2.45;;;;;;;18.04;29.04;102905.47;4218358;28;20093;-42
2022/01/16 07:58:02;;;;;;;3.20;1.85;;;;;;;18.06;29.32;102905.28;4227360;28;20043;-42
2022/01/16 08:00:05;;;;;;;2.53;1.90;;;;;;;18.02;29.42;102895.69;4230057;28;20032;-41
2022/01/16 08:02:07;;;;;;;3.17;2.55;;;;;;;18.04;29.60;102899.09;4214182;28;20044;-42
2022/01/16 08:04:09;;;;;;;3.70;2.10;;;;;;;18.03;29.58;102898.22;4222364;28;20422;-42
2022/01/16 08:06:13;;;;;;;3.00;2.13;;;;;;;18.03;29.15;102908.47;4219600;28;20401;-43
2022/01/16 08:08:14;;;;;;;3.72;2.30;;;;;;;18.02;29.58;102904.00;4231833;28;20043;-42
2022/01/16 08:10:18;;;;;;;3.80;2.22;;;;;;;17.95;29.29;102876.28;4231967;28;20044;-44
2022/01/16 08:12:25;;;;;;;4.47;2.22;;;;;;;17.98;29.69;102880.56;4217193;28;20385;-43
2022/01/16 08:14:30;;;;;;;2.65;1.90;;;;;;;17.96;29.51;102875.25;4214097;28;20422;-42
2022/01/16 08:16:31;;;;;;;2.70;1.95;;;;;;;17.98;29.63;102877.78;4218040;28;20100;-44
2022/01/16 08:18:33;;;;;;;3.60;2.38;;;;;;;17.97;29.50;102876.09;4231838;28;20040;-42
2022/01/16 08:20:35;;;;;;;3.33;1.83;;;;;;;17.94;29.52;102882.03;4230699;28;20036;-43
2022/01/16 08:22:40;;;;;;;3.33;2.00;;;;;;;17.90;29.32;102869.69;4231471;28;20035;-42
2022/01/16 08:24:41;;;;;;;2.70;1.88;;;;;;;17.94;29.46;102871.81;4214667;28;20101;-43
2022/01/16 08:26:42;;;;;;;2.47;1.90;;;;;;;17.93;29.54;102874.81;4231067;28;20633;-42
2022/01/16 08:28:44;;;;;;;3.22;1.80;;;;;;;17.92;29.72;102864.81;4229335;28;20035;-44
2022/01/16 08:30:45;;;;;;;3.40;1.90;;;;;;;17.92;29.88;102857.34;4221428;28;20112;-42
2022/01/16 08:32:50;;;;;;;3.42;1.73;;;;;;;17.90;29.35;102853.06;4232241;28;20475;-43
2022/01/16 08:34:51;;;;;;;3.30;2.15;;;;;;;17.86;29.40;102835.16;4231368;28;20081;-43
2022/01/16 08:36:52;;;;;;;5.07;2.30;;;;;;;17.87;29.71;102842.41;4231091;28;20043;-44
2022/01/16 08:38:54;;;;;;;2.88;2.20;;;;;;;17.87;29.80;102847.94;4218177;28;20064;-43
2022/01/16 08:40:55;;;;;;;4.75;2.13;;;;;;;17.84;29.51;102838.16;4214801;28;20078;-42
2022/01/16 08:43:07;;;;;;;2.70;1.90;;;;;;;17.78;29.77;102837.13;4214106;28;20479;-45
2022/01/16 08:45:09;;;;;;;3.70;2.05;;;;;;;17.81;29.86;102835.81;4214441;28;20086;-46
2022/01/16 08:47:11;;;;;;;2.22;1.88;;;;;;;17.79;29.83;102840.72;4209590;28;20101;-42
2022/01/16 08:49:13;;;;;;;2.70;1.90;;;;;;;17.74;29.67;102833.06;4225888;28;20093;-43
2022/01/16 08:51:18;;;;;;;3.00;1.98;;;;;;;17.80;29.69;102847.13;4243332;27;20428;-43
2022/01/16 08:53:20;;;;;;;2.47;1.90;;;;;;;17.78;29.72;102847.34;4248333;27;20435;-42
2022/01/16 08:55:21;;;;;;;2.63;1.88;;;;;;;17.76;30.03;102852.22;4219312;27;20044;-42
2022/01/16 08:57:25;;;;;;;3.15;2.00;;;;;;;17.74;29.73;102857.13;4223739;28;20518;-43
2022/01/16 08:59:28;;;;;;;2.78;2.20;;;;;;;17.72;30.06;102862.00;4229115;28;20265;-42
2022/01/16 09:01:30;;;;;;;2.80;2.10;;;;;;;17.72;30.10;102846.22;4215513;28;20426;-43
2022/01/16 09:03:33;;;;;;;3.65;2.03;;;;;;;17.70;29.93;102837.28;4229481;27;20093;-44
2022/01/16 09:05:34;;;;;;;2.95;2.10;;;;;;;17.69;29.95;102841.13;4248008;27;20039;-42
2022/01/16 09:07:36;;;;;;;2.97;2.35;;;;;;;17.69;30.11;102848.59;4245850;27;20046;-45
2022/01/16 09:09:37;;;;;;;2.85;1.92;;;;;;;17.67;29.89;102857.09;4230243;28;20479;-44
2022/01/16 09:11:39;;;;;;;3.33;1.92;;;;;;;17.68;29.84;102856.00;4230729;28;20441;-43
2022/01/16 09:13:41;;;;;;;3.17;2.20;;;;;;;17.67;30.14;102861.78;4231594;28;20024;-43
2022/01/16 09:15:50;;;;;;;3.38;1.98;;;;;;;17.65;30.19;102859.22;4230394;28;20438;-43
2022/01/16 09:17:51;;;;;;;2.10;1.65;;;;;;;17.64;30.22;102849.22;4230692;28;20097;-42
2022/01/16 09:19:53;;;;;;;3.60;2.17;;;;;;;17.64;30.10;102851.13;4232864;27;20389;-43
2022/01/16 09:21:57;;;;;;;2.53;1.70;;;;;;;17.64;29.98;102838.16;4248107;27;20418;-43
2022/01/16 09:23:59;;;;;;;3.20;2.00;;;;;;;17.64;29.80;102860.31;4236865;27;20031;-44
2022/01/16 09:26:00;;;;;;;2.92;2.10;;;;;;;17.63;30.11;102869.66;4230646;28;20044;-43
2022/01/16 09:28:02;;;;;;;3.08;2.08;;;;;;;17.62;29.88;102845.81;4218866;28;20094;-42
2022/01/16 09:30:06;;;;;;;4.05;2.20;;;;;;;17.62;29.62;102856.03;4213673;28;20036;-41
2022/01/16 09:32:13;;;;;;;4.20;2.38;;;;;;;17.61;30.08;102838.56;4213315;28;20481;-42
2022/01/16 09:34:14;;;;;;;2.67;1.90;;;;;;;17.59;30.22;102890.50;4214308;28;20044;-43
2022/01/16 09:36:15;;;;;;;3.25;2.00;;;;;;;17.59;29.72;102813.00;4213269;28;20032;-42
2022/01/16 09:38:18;;;;;;;4.32;2.00;;;;;;;17.51;30.03;102850.06;4212924;28;20036;-43
2022/01/16 09:40:21;;;;;;;3.13;1.95;;;;;;;17.57;30.14;102790.22;4213152;28;20162;-42
2022/01/16 09:42:23;;;;;;;2.28;1.90;;;;;;;17.56;29.76;102885.41;4214045;28;20040;-43
2022/01/16 09:44:24;;;;;;;2.35;1.98;;;;;;;17.55;29.78;102844.97;4213063;28;20040;-45
2022/01/16 09:46:26;;;;;;;2.75;1.80;;;;;;;17.54;29.87;102876.47;4213852;28;20032;-44
2022/01/16 09:48:28;;;;;;;3.53;2.08;;;;;;;17.53;29.80;102864.53;4213582;28;20167;-43
2022/01/16 09:50:29;;;;;;;3.63;2.15;;;;;;;17.53;29.81;102833.25;4213972;28;20093;-44
2022/01/16 09:52:38;;;;;;;2.80;2.17;;;;;;;17.52;30.01;102851.75;4212944;28;20036;-45
2022/01/16 09:54:42;;;;;;;3.08;2.17;;;;;;;17.52;29.68;102801.09;4213039;28;20430;-46
2022/01/16 09:56:44;;;;;;;2.53;2.03;;;;;;;17.50;29.98;102840.06;4225259;27;20478;-42
2022/01/16 09:58:48;;;;;;;3.45;2.20;;;;;;;17.50;30.12;102830.88;4235390;27;20039;-42
2022/01/16 10:00:52;;;;;;;2.95;2.03;;;;;;;17.48;30.14;102871.78;4229531;28;20044;-44
2022/01/16 10:02:54;;;;;;;2.55;1.85;;;;;;;17.50;30.07;102858.56;4229506;28;20027;-42
2022/01/16 10:04:56;;;;;;;3.38;2.05;;;;;;;17.49;29.91;102810.66;4218683;28;20031;-44
2022/01/16 10:07:01;;;;;;;3.95;1.88;;;;;;;17.48;29.80;102821.94;4223253;28;20479;-43
2022/01/16 10:09:16;;;;;;;3.45;2.28;;;;;;;17.44;30.18;102848.34;4214133;28;20203;-42
2022/01/16 10:11:24;;;;;;;3.97;1.90;;;;;;;17.46;29.83;102835.16;4224611;28;20040;-42
2022/01/16 10:13:37;;;;;;;2.85;1.85;;;;;;;17.45;30.25;102784.47;4246706;28;20035;-42